This is the latest recevied weather packets stored in our database for station/object KA1JKB. If no packets are shown the sender has not sent any weather packets the latest 10 day(s).
| Time | Temp. | Humidity | Pressure | Rain* | Wind** | Luminosity | Snow |
|---|---|---|---|---|---|---|---|
| 1777061893 | 18.33° C | 94% | 1003.3 hPa | 0 mm | - | 96 W/m² | - |
| 1777061589 | 17.78° C | 93% | 1003.3 hPa | 1.78 mm | - | 84 W/m² | - |
| 1777061285 | 17.78° C | 91% | 1003.2 hPa | 3.56 mm | - | 65 W/m² | - |
| 1777060980 | 18.33° C | 89% | 1003.4 hPa | 1.78 mm | - | 37 W/m² | - |
| 1777060675 | 18.89° C | 85% | 1003.5 hPa | 0 mm | - | 28 W/m² | - |
| 1777060371 | 19.44° C | 83% | 1003.5 hPa | 0 mm | - | 23 W/m² | - |
| 1777060068 | 20° C | 80% | 1003.3 hPa | 0 mm | - | 22 W/m² | - |
| 1777059763 | 21.11° C | 72% | 1003.1 hPa | 0 mm | - | 23 W/m² | - |
| 1777059461 | 21.67° C | 70% | 1002.8 hPa | 0 mm | - | 22 W/m² | - |
| 1777059158 | 23.89° C | 64% | 1003 hPa | 0 mm | - | 14 W/m² | - |
| 1777058853 | 25° C | 59% | 1002.2 hPa | 0 mm | - | 44 W/m² | - |
| 1777058547 | 26.11° C | 56% | 1002.4 hPa | 0 mm | - | 132 W/m² | - |
| 1777058245 | 27.22° C | 55% | 1002.3 hPa | 0 mm | - | 295 W/m² | - |
| 1777057941 | 27.22° C | 56% | 1002.2 hPa | 0 mm | - | 758 W/m² | - |
| 1777057635 | 26.67° C | 56% | 1002.2 hPa | 0 mm | - | 697 W/m² | - |
| 1777057332 | 26.67° C | 56% | 1002.2 hPa | 0 mm | - | 695 W/m² | - |
| 1777057027 | 26.67° C | 57% | 1002.4 hPa | 0 mm | - | 688 W/m² | - |
| 1777056726 | 26.11° C | 57% | 1002.1 hPa | 0 mm | - | 664 W/m² | - |
| 1777056422 | 26.67° C | 56% | 1002.2 hPa | 0 mm | - | 662 W/m² | - |
| 1777056118 | 26.11° C | 58% | 1002.4 hPa | 0 mm | - | 680 W/m² | - |
| 1777055815 | 26.11° C | 56% | 1002.2 hPa | 0 mm | - | 682 W/m² | - |
| 1777055511 | 26.11° C | 59% | 1002.3 hPa | 0 mm | - | 686 W/m² | - |
| 1777055205 | 26.11° C | 59% | 1002.7 hPa | 0 mm | - | 533 W/m² | - |
| 1777054904 | 26.11° C | 59% | 1002.8 hPa | 0 mm | - | 460 W/m² | - |
| 1777054602 | 26.11° C | 58% | 1002.7 hPa | 0 mm | - | 501 W/m² | - |
* Rain latest hour (hover to see other rain measurements)
** Current wind speed in m/s (hover to see current wind gust speed)